Time;durP1;ratioP1;P1;durP2;ratioP2;P2;SDS_P1;SDS_P2;PMS_P1;PMS_P2;Temp;Humidity;BMP_temperature;BMP_pressure;BME280_temperature;BME280_humidity;BME280_pressure;Samples;Min_cycle;Max_cycle;Signal;HPM_P1;HPM_P2
2024/01/19 00:01:26;;;;;;;11.37;9.50;;;;;;;;;;5015765;28;20519;-55
2024/01/19 00:03:52;;;;;;;10.87;8.37;;;;;;;;;;5019768;28;20498;-55
2024/01/19 00:06:18;;;;;;;10.87;9.33;;;;;;;;;;4999992;28;20198;-55
2024/01/19 00:08:45;;;;;;;15.23;10.37;;;;;;;;;;5019694;28;20816;-55
2024/01/19 00:11:14;;;;;;;12.23;9.60;;;;;;;;;;5012597;28;20174;-55
2024/01/19 00:13:41;;;;;;;12.20;10.57;;;;;;;;;;5021021;28;20633;-55
2024/01/19 00:16:07;;;;;;;12.43;10.93;;;;;;;;;;5015536;28;20930;-55
2024/01/19 00:18:33;;;;;;;14.03;9.97;;;;;;;;;;5018757;28;20418;-55
2024/01/19 00:20:59;;;;;;;11.57;10.07;;;;;;;;;;5011241;28;20182;-55
2024/01/19 00:23:25;;;;;;;10.60;9.43;;;;;;;;;;5021395;28;20665;-56
2024/01/19 00:25:51;;;;;;;12.87;10.63;;;;;;;;;;5012891;28;20441;-55
2024/01/19 00:28:17;;;;;;;10.77;9.63;;;;;;;;;;5015354;28;20306;-55
2024/01/19 00:30:43;;;;;;;13.67;10.07;;;;;;;;;;5023229;28;20252;-55
2024/01/19 00:33:10;;;;;;;10.20;9.10;;;;;;;;;;5022531;28;20424;-55
2024/01/19 00:35:36;;;;;;;11.60;10.33;;;;;;;;;;5018651;28;20501;-55
2024/01/19 00:38:03;;;;;;;14.63;10.33;;;;;;;;;;5015711;28;20436;-55
2024/01/19 00:40:29;;;;;;;12.33;9.63;;;;;;;;;;5021278;28;20873;-55
2024/01/19 00:42:55;;;;;;;12.70;10.80;;;;;;;;;;5010088;28;21088;-55
2024/01/19 00:45:22;;;;;;;13.33;10.30;;;;;;;;;;5022256;28;20925;-55
2024/01/19 00:47:48;;;;;;;13.17;10.20;;;;;;;;;;5007767;28;20499;-55
2024/01/19 00:50:14;;;;;;;16.27;11.10;;;;;;;;;;5020636;28;20401;-55
2024/01/19 00:52:40;;;;;;;13.47;10.63;;;;;;;;;;5022069;28;20606;-55
2024/01/19 00:55:07;;;;;;;12.67;10.73;;;;;;;;;;5019833;28;20408;-50
2024/01/19 00:57:33;;;;;;;12.30;10.57;;;;;;;;;;5012125;28;20420;-50
2024/01/19 00:59:59;;;;;;;11.53;9.97;;;;;;;;;;5022627;28;20441;-52
2024/01/19 01:02:28;;;;;;;11.60;9.90;;;;;;;;;;5019082;28;20543;-50
2024/01/19 01:04:57;;;;;;;13.53;10.73;;;;;;;;;;5016038;28;20417;-50
2024/01/19 01:07:23;;;;;;;12.77;10.13;;;;;;;;;;5015533;28;20826;-50
2024/01/19 01:09:49;;;;;;;13.03;10.93;;;;;;;;;;5016156;28;20868;-50
2024/01/19 01:12:15;;;;;;;14.30;10.87;;;;;;;;;;5030328;28;20421;-49
2024/01/19 01:14:42;;;;;;;12.55;11.25;;;;;;;;;;5021475;28;20257;-50
2024/01/19 01:17:08;;;;;;;13.70;10.97;;;;;;;;;;5022334;28;20941;-51
2024/01/19 01:19:34;;;;;;;12.83;10.43;;;;;;;;;;5019790;28;20422;-50
2024/01/19 01:22:00;;;;;;;14.07;10.57;;;;;;;;;;5023072;28;20408;-50
2024/01/19 01:24:26;;;;;;;12.30;10.70;;;;;;;;;;5014039;28;20871;-52
2024/01/19 01:26:52;;;;;;;11.43;9.87;;;;;;;;;;5010687;28;20450;-50
2024/01/19 01:29:18;;;;;;;14.10;10.10;;;;;;;;;;5015431;28;20425;-50
2024/01/19 01:31:44;;;;;;;13.77;10.57;;;;;;;;;;5022718;28;20447;-50
2024/01/19 01:34:10;;;;;;;13.67;10.77;;;;;;;;;;5009949;28;20878;-50
2024/01/19 01:36:36;;;;;;;14.97;11.00;;;;;;;;;;5011720;28;20429;-51
2024/01/19 01:39:03;;;;;;;13.23;10.40;;;;;;;;;;5017270;28;20424;-50
2024/01/19 01:41:29;;;;;;;12.23;10.70;;;;;;;;;;5011075;28;20885;-51
2024/01/19 01:43:55;;;;;;;13.40;10.40;;;;;;;;;;5022073;28;20467;-51
2024/01/19 01:46:21;;;;;;;12.73;10.80;;;;;;;;;;5016743;28;20467;-50
2024/01/19 01:48:47;;;;;;;13.57;11.97;;;;;;;;;;5015591;28;20413;-51
2024/01/19 01:51:14;;;;;;;16.27;11.30;;;;;;;;;;5007295;28;20244;-50
2024/01/19 01:53:40;;;;;;;13.00;11.33;;;;;;;;;;5015132;28;20528;-50
2024/01/19 01:56:06;;;;;;;14.67;12.20;;;;;;;;;;5019788;28;20402;-49
2024/01/19 01:58:32;;;;;;;13.40;10.57;;;;;;;;;;5017729;28;20811;-50
2024/01/19 02:00:58;;;;;;;15.57;11.97;;;;;;;;;;5027749;28;20432;-52
2024/01/19 02:03:26;;;;;;;18.33;13.03;;;;;;;;;;5028029;28;20542;-50
2024/01/19 02:05:52;;;;;;;13.83;11.13;;;;;;;;;;5027425;28;20429;-54
2024/01/19 02:08:18;;;;;;;14.67;11.10;;;;;;;;;;5019066;28;20410;-55
2024/01/19 02:10:44;;;;;;;15.30;11.47;;;;;;;;;;5015380;28;20412;-55
2024/01/19 02:13:10;;;;;;;17.53;12.10;;;;;;;;;;5022057;28;20402;-55
2024/01/19 02:15:37;;;;;;;15.33;12.20;;;;;;;;;;5019636;28;20417;-54
2024/01/19 02:18:04;;;;;;;16.20;10.80;;;;;;;;;;5015380;28;20417;-54
2024/01/19 02:20:30;;;;;;;15.10;12.10;;;;;;;;;;5012658;28;20456;-54
2024/01/19 02:22:56;;;;;;;15.00;11.57;;;;;;;;;;5022577;28;20491;-54
2024/01/19 02:28:26;;;;;;;17.67;13.10;;;;;;;;;;5019131;28;20391;-54
2024/01/19 02:30:52;;;;;;;16.97;12.27;;;;;;;;;;5021773;28;20424;-55
2024/01/19 02:33:18;;;;;;;16.63;12.57;;;;;;;;;;5019797;28;20183;-54
2024/01/19 02:35:44;;;;;;;16.50;11.93;;;;;;;;;;5010001;28;20429;-54
2024/01/19 02:38:10;;;;;;;16.13;12.47;;;;;;;;;;5018282;28;20454;-54
2024/01/19 02:40:36;;;;;;;17.07;12.67;;;;;;;;;;5023224;28;20184;-54
2024/01/19 02:43:02;;;;;;;18.77;13.80;;;;;;;;;;5020677;28;20229;-54
2024/01/19 02:45:28;;;;;;;18.87;13.03;;;;;;;;;;5022415;28;20478;-54
2024/01/19 02:47:54;;;;;;;17.30;12.33;;;;;;;;;;5017077;28;20537;-54
2024/01/19 02:50:20;;;;;;;20.50;13.50;;;;;;;;;;5016612;28;20769;-54
2024/01/19 02:52:46;;;;;;;19.20;12.60;;;;;;;;;;5018772;28;20270;-54
2024/01/19 02:55:12;;;;;;;18.33;13.10;;;;;;;;;;5022727;28;20209;-54
2024/01/19 02:57:38;;;;;;;22.20;13.93;;;;;;;;;;5015371;28;20508;-54
2024/01/19 03:00:05;;;;;;;18.73;12.70;;;;;;;;;;5014696;28;20940;-54
2024/01/19 03:02:31;;;;;;;19.00;13.37;;;;;;;;;;5010410;28;20214;-54
2024/01/19 03:04:57;;;;;;;19.27;13.57;;;;;;;;;;5017235;28;20424;-54
2024/01/19 03:07:23;;;;;;;20.93;14.03;;;;;;;;;;5023267;28;20398;-54
2024/01/19 03:09:49;;;;;;;20.57;14.40;;;;;;;;;;5019224;28;20693;-54
2024/01/19 03:12:15;;;;;;;21.20;14.60;;;;;;;;;;5026693;28;21081;-54
2024/01/19 03:14:41;;;;;;;20.33;14.50;;;;;;;;;;5018024;28;20424;-54
2024/01/19 03:17:07;;;;;;;17.57;13.53;;;;;;;;;;5027277;28;20188;-60
2024/01/19 03:19:33;;;;;;;22.70;14.27;;;;;;;;;;5019375;28;20189;-59
2024/01/19 03:21:59;;;;;;;22.13;15.03;;;;;;;;;;5027933;28;20767;-59
2024/01/19 03:24:25;;;;;;;21.50;13.53;;;;;;;;;;5020584;28;20983;-60
2024/01/19 03:26:51;;;;;;;20.63;14.33;;;;;;;;;;5028975;28;20934;-61
2024/01/19 03:29:18;;;;;;;24.13;14.33;;;;;;;;;;5015424;28;20416;-61
2024/01/19 03:31:44;;;;;;;21.60;14.40;;;;;;;;;;5020324;28;20304;-59
2024/01/19 03:34:10;;;;;;;21.53;13.67;;;;;;;;;;5028988;28;20614;-61
2024/01/19 03:36:37;;;;;;;22.17;13.93;;;;;;;;;;5010049;28;20229;-59
2024/01/19 03:39:03;;;;;;;24.60;15.33;;;;;;;;;;5024374;28;20936;-59
2024/01/19 03:41:29;;;;;;;25.57;15.07;;;;;;;;;;5010173;28;20488;-61
2024/01/19 03:43:55;;;;;;;23.97;15.17;;;;;;;;;;5022776;28;21058;-61
2024/01/19 03:46:21;;;;;;;23.73;14.57;;;;;;;;;;5016541;28;20217;-61
2024/01/19 03:48:47;;;;;;;21.67;14.37;;;;;;;;;;5019427;28;20518;-60
2024/01/19 03:51:13;;;;;;;23.43;14.77;;;;;;;;;;5009427;28;20175;-60
2024/01/19 03:53:42;;;;;;;21.97;14.63;;;;;;;;;;5010455;28;20238;-60
2024/01/19 03:56:09;;;;;;;23.73;14.77;;;;;;;;;;5021649;28;20218;-58
2024/01/19 03:58:35;;;;;;;20.93;15.13;;;;;;;;;;5010154;28;20414;-58
2024/01/19 04:01:01;;;;;;;24.50;15.33;;;;;;;;;;5019039;28;20482;-60
2024/01/19 04:03:27;;;;;;;23.67;15.10;;;;;;;;;;5021976;28;20197;-61
2024/01/19 04:05:53;;;;;;;26.73;15.17;;;;;;;;;;5014758;28;20418;-59
2024/01/19 04:08:19;;;;;;;23.30;14.93;;;;;;;;;;5016166;28;20400;-58
2024/01/19 04:10:45;;;;;;;23.87;14.70;;;;;;;;;;5014105;28;20177;-60
2024/01/19 04:13:11;;;;;;;22.83;13.57;;;;;;;;;;5018306;28;20174;-59
2024/01/19 04:15:37;;;;;;;22.63;15.00;;;;;;;;;;5013084;28;20183;-60
2024/01/19 04:18:04;;;;;;;23.33;14.47;;;;;;;;;;5015875;28;20182;-60
2024/01/19 04:20:30;;;;;;;24.07;14.67;;;;;;;;;;5014789;28;20217;-60
2024/01/19 04:22:56;;;;;;;25.00;15.03;;;;;;;;;;5022488;28;20602;-60
2024/01/19 04:25:22;;;;;;;23.93;15.00;;;;;;;;;;5020769;28;20493;-59
2024/01/19 04:27:48;;;;;;;26.93;15.00;;;;;;;;;;5015368;28;20441;-52
2024/01/19 04:30:14;;;;;;;23.50;15.17;;;;;;;;;;5020169;28;20413;-53
2024/01/19 04:32:40;;;;;;;25.17;14.37;;;;;;;;;;5012599;28;20933;-49
2024/01/19 04:35:06;;;;;;;25.67;14.43;;;;;;;;;;5013375;28;20938;-50
2024/01/19 04:37:32;;;;;;;26.13;15.57;;;;;;;;;;5009855;28;20908;-50
2024/01/19 04:39:58;;;;;;;22.43;14.57;;;;;;;;;;5021494;28;20897;-50
2024/01/19 04:42:24;;;;;;;25.70;14.27;;;;;;;;;;5014078;28;20911;-50
2024/01/19 04:44:51;;;;;;;24.13;14.23;;;;;;;;;;5017907;28;20511;-51
2024/01/19 04:47:17;;;;;;;23.47;14.27;;;;;;;;;;5020936;28;20675;-51
2024/01/19 04:49:43;;;;;;;22.47;15.30;;;;;;;;;;5001315;28;20447;-50
2024/01/19 04:52:09;;;;;;;25.40;14.77;;;;;;;;;;5024870;28;20436;-52
2024/01/19 04:54:35;;;;;;;18.77;13.13;;;;;;;;;;5015955;28;20415;-50
2024/01/19 04:57:02;;;;;;;23.63;13.53;;;;;;;;;;5010356;28;20417;-51
2024/01/19 04:59:28;;;;;;;22.23;14.37;;;;;;;;;;5022752;28;20258;-50
2024/01/19 05:01:54;;;;;;;29.93;14.83;;;;;;;;;;5020206;28;20455;-50
2024/01/19 05:04:20;;;;;;;19.67;13.47;;;;;;;;;;5013470;28;20472;-51
2024/01/19 05:06:46;;;;;;;24.10;14.40;;;;;;;;;;5015853;28;20417;-50
2024/01/19 05:09:12;;;;;;;21.73;13.47;;;;;;;;;;5016141;28;20428;-50
2024/01/19 05:11:38;;;;;;;22.47;14.17;;;;;;;;;;5018374;28;20404;-52
2024/01/19 05:14:05;;;;;;;22.13;13.73;;;;;;;;;;5017252;28;20405;-52
2024/01/19 05:16:31;;;;;;;18.57;12.40;;;;;;;;;;5015267;28;20456;-52
2024/01/19 05:18:57;;;;;;;20.00;13.17;;;;;;;;;;5015519;28;20429;-52
2024/01/19 05:21:23;;;;;;;21.60;14.43;;;;;;;;;;5013350;28;20681;-50
2024/01/19 05:23:49;;;;;;;20.77;13.20;;;;;;;;;;5017032;28;20693;-51
2024/01/19 05:26:15;;;;;;;27.63;15.20;;;;;;;;;;5009613;28;20429;-50
2024/01/19 05:28:41;;;;;;;23.53;14.27;;;;;;;;;;5014433;28;20170;-51
2024/01/19 05:31:07;;;;;;;22.17;12.70;;;;;;;;;;5015401;28;20175;-52
2024/01/19 05:33:34;;;;;;;22.70;13.57;;;;;;;;;;5021462;28;20639;-51
2024/01/19 05:36:01;;;;;;;25.07;13.60;;;;;;;;;;5029189;28;20432;-51
2024/01/19 05:38:27;;;;;;;20.87;13.30;;;;;;;;;;5029273;28;20451;-55
2024/01/19 05:40:53;;;;;;;21.60;13.17;;;;;;;;;;5030747;28;20438;-54
2024/01/19 05:43:19;;;;;;;17.57;12.03;;;;;;;;;;5024365;28;20487;-55
2024/01/19 05:45:45;;;;;;;20.47;13.07;;;;;;;;;;5023048;28;20507;-55
2024/01/19 05:48:11;;;;;;;21.27;12.47;;;;;;;;;;5024257;28;20162;-55
2024/01/19 05:50:37;;;;;;;22.53;13.60;;;;;;;;;;5020963;28;20428;-55
2024/01/19 05:53:03;;;;;;;19.20;12.70;;;;;;;;;;5021409;28;20585;-55
2024/01/19 05:55:29;;;;;;;22.13;12.50;;;;;;;;;;5023571;28;20590;-55
2024/01/19 05:57:55;;;;;;;19.23;12.93;;;;;;;;;;5025160;28;20923;-55
2024/01/19 06:00:21;;;;;;;17.57;12.97;;;;;;;;;;5029328;28;20405;-55
2024/01/19 06:02:48;;;;;;;22.57;12.50;;;;;;;;;;5017192;28;20701;-54
2024/01/19 06:05:14;;;;;;;22.13;13.53;;;;;;;;;;5026458;28;20421;-54
2024/01/19 06:07:40;;;;;;;17.27;12.60;;;;;;;;;;5028924;28;20424;-54
2024/01/19 06:10:06;;;;;;;18.43;12.57;;;;;;;;;;5025432;28;20179;-54
2024/01/19 06:12:32;;;;;;;23.80;13.73;;;;;;;;;;5020642;28;20457;-54
2024/01/19 06:14:58;;;;;;;19.70;12.93;;;;;;;;;;5016799;28;20460;-55
2024/01/19 06:17:24;;;;;;;21.77;12.67;;;;;;;;;;5010153;28;20437;-55
2024/01/19 06:19:50;;;;;;;21.90;13.27;;;;;;;;;;5021359;28;20182;-54
2024/01/19 06:22:16;;;;;;;20.63;12.93;;;;;;;;;;5017383;28;20812;-55
2024/01/19 06:24:42;;;;;;;17.43;11.87;;;;;;;;;;5013812;28;20777;-54
2024/01/19 06:27:08;;;;;;;16.83;12.20;;;;;;;;;;5029040;28;20941;-54
2024/01/19 06:29:34;;;;;;;20.63;12.13;;;;;;;;;;5027057;28;20401;-55
2024/01/19 06:32:00;;;;;;;18.30;12.10;;;;;;;;;;5024866;28;21022;-55
2024/01/19 06:34:26;;;;;;;20.90;11.97;;;;;;;;;;5024163;28;20920;-55
2024/01/19 06:36:52;;;;;;;19.90;13.20;;;;;;;;;;5018230;28;20439;-54
2024/01/19 06:39:18;;;;;;;18.33;12.37;;;;;;;;;;5023395;28;20405;-55
2024/01/19 06:41:45;;;;;;;19.37;12.60;;;;;;;;;;5029298;28;20205;-55
2024/01/19 06:44:12;;;;;;;17.90;13.27;;;;;;;;;;5028912;28;20460;-55
2024/01/19 06:46:38;;;;;;;18.93;11.97;;;;;;;;;;5029236;28;20550;-54
2024/01/19 06:49:04;;;;;;;20.03;12.83;;;;;;;;;;5028122;28;20397;-55
2024/01/19 06:51:30;;;;;;;18.83;11.23;;;;;;;;;;5010657;28;20428;-55
2024/01/19 06:53:56;;;;;;;21.63;12.97;;;;;;;;;;5020106;28;20516;-55
2024/01/19 06:56:22;;;;;;;19.43;12.90;;;;;;;;;;5010002;28;20485;-54
2024/01/19 06:58:48;;;;;;;19.63;11.93;;;;;;;;;;5016135;28;20441;-55
2024/01/19 07:01:14;;;;;;;20.03;11.97;;;;;;;;;;5030146;28;20412;-55
2024/01/19 07:03:41;;;;;;;16.50;10.80;;;;;;;;;;5024508;28;20264;-55
2024/01/19 07:06:07;;;;;;;18.20;12.17;;;;;;;;;;5029032;28;20408;-54
2024/01/19 07:08:33;;;;;;;20.60;12.97;;;;;;;;;;5024852;28;20429;-54
2024/01/19 07:10:59;;;;;;;15.80;10.57;;;;;;;;;;5024471;28;20174;-55
2024/01/19 07:13:25;;;;;;;17.07;11.33;;;;;;;;;;5028235;28;20174;-54
2024/01/19 07:15:51;;;;;;;18.60;11.37;;;;;;;;;;5022887;28;20178;-55
2024/01/19 07:18:17;;;;;;;20.67;12.00;;;;;;;;;;5015732;28;20205;-55
2024/01/19 07:20:43;;;;;;;18.03;11.90;;;;;;;;;;5024957;28;20657;-55
2024/01/19 07:23:09;;;;;;;16.07;10.70;;;;;;;;;;5017524;28;20257;-55
2024/01/19 07:25:35;;;;;;;19.27;12.10;;;;;;;;;;5009540;28;20406;-55
2024/01/19 07:28:01;;;;;;;17.87;12.97;;;;;;;;;;5018852;28;20478;-55
2024/01/19 07:30:27;;;;;;;20.43;12.30;;;;;;;;;;5029835;28;20446;-55
2024/01/19 07:32:53;;;;;;;19.07;12.33;;;;;;;;;;5028299;28;20424;-55
2024/01/19 07:35:19;;;;;;;17.27;12.40;;;;;;;;;;5029117;28;20417;-55
2024/01/19 07:37:45;;;;;;;19.90;12.87;;;;;;;;;;5022170;28;20175;-54
2024/01/19 07:40:12;;;;;;;20.23;13.50;;;;;;;;;;5015575;28;20452;-55
2024/01/19 07:42:38;;;;;;;18.47;12.70;;;;;;;;;;5028238;28;20437;-55
2024/01/19 07:45:04;;;;;;;19.63;13.57;;;;;;;;;;5029025;28;20397;-55
2024/01/19 07:47:32;;;;;;;21.40;13.47;;;;;;;;;;5027605;28;20178;-55
2024/01/19 07:49:58;;;;;;;20.70;13.93;;;;;;;;;;5028668;28;20527;-55
2024/01/19 07:52:24;;;;;;;20.83;12.90;;;;;;;;;;5026450;28;20381;-55
2024/01/19 07:54:50;;;;;;;19.10;13.23;;;;;;;;;;5009467;28;20965;-54
2024/01/19 07:57:16;;;;;;;16.67;13.13;;;;;;;;;;5009968;28;20504;-60
2024/01/19 07:59:43;;;;;;;21.13;14.40;;;;;;;;;;5028070;28;20177;-59
2024/01/19 08:02:09;;;;;;;19.63;13.50;;;;;;;;;;5024347;28;20282;-59
2024/01/19 08:04:35;;;;;;;17.60;13.53;;;;;;;;;;5008710;28;20460;-60
2024/01/19 08:07:02;;;;;;;17.87;14.13;;;;;;;;;;5007723;28;20432;-59
2024/01/19 08:09:28;;;;;;;20.53;15.10;;;;;;;;;;5024500;28;20224;-59
2024/01/19 08:11:54;;;;;;;20.07;14.63;;;;;;;;;;5027915;28;20435;-60
2024/01/19 08:14:20;;;;;;;18.17;13.37;;;;;;;;;;5028258;28;20170;-59
2024/01/19 08:16:46;;;;;;;18.73;13.83;;;;;;;;;;5028412;28;20942;-58
2024/01/19 08:19:12;;;;;;;19.23;13.60;;;;;;;;;;5027853;28;20412;-59
2024/01/19 08:21:42;;;;;;;18.53;14.00;;;;;;;;;;5027546;28;20400;-59
2024/01/19 08:24:08;;;;;;;20.37;13.83;;;;;;;;;;5028460;28;20681;-59
2024/01/19 08:26:34;;;;;;;16.33;12.87;;;;;;;;;;5042964;28;20558;-60
2024/01/19 08:29:00;;;;;;;21.30;14.97;;;;;;;;;;5048057;28;20419;-59
2024/01/19 08:31:27;;;;;;;20.50;13.57;;;;;;;;;;5047856;28;20392;-59
2024/01/19 08:33:53;;;;;;;16.93;13.07;;;;;;;;;;5028811;28;20424;-58
2024/01/19 08:36:24;;;;;;;18.70;14.60;;;;;;;;;;5027372;28;20400;-59
2024/01/19 08:38:53;;;;;;;18.17;13.97;;;;;;;;;;5027029;28;20900;-56
2024/01/19 08:41:20;;;;;;;19.50;14.13;;;;;;;;;;5027803;28;20428;-59
2024/01/19 08:43:46;;;;;;;18.43;13.67;;;;;;;;;;5024040;28;20471;-60
2024/01/19 08:46:12;;;;;;;22.37;15.30;;;;;;;;;;5025715;28;20452;-59
2024/01/19 08:48:39;;;;;;;18.77;14.53;;;;;;;;;;5027820;28;20404;-59
2024/01/19 08:51:05;;;;;;;17.40;13.10;;;;;;;;;;5027149;28;20166;-60
2024/01/19 08:53:31;;;;;;;17.77;13.33;;;;;;;;;;5027440;28;20447;-60
2024/01/19 08:55:57;;;;;;;19.10;14.77;;;;;;;;;;5027454;28;20421;-60
2024/01/19 08:58:23;;;;;;;19.97;13.83;;;;;;;;;;5027860;28;20416;-60
2024/01/19 09:00:50;;;;;;;22.47;14.73;;;;;;;;;;5027861;28;20400;-58
2024/01/19 09:03:16;;;;;;;18.40;14.43;;;;;;;;;;5028392;28;20491;-59
2024/01/19 09:05:42;;;;;;;19.67;14.73;;;;;;;;;;5030999;28;20435;-60
2024/01/19 09:08:08;;;;;;;21.43;15.50;;;;;;;;;;5022081;28;20972;-50
2024/01/19 09:10:34;;;;;;;19.13;15.37;;;;;;;;;;5011757;28;20447;-50
2024/01/19 09:13:00;;;;;;;20.30;14.93;;;;;;;;;;5021417;28;20416;-53
2024/01/19 09:15:26;;;;;;;17.43;14.17;;;;;;;;;;5030854;28;20845;-48
2024/01/19 09:17:52;;;;;;;20.03;14.70;;;;;;;;;;5031281;28;20466;-50
2024/01/19 09:20:18;;;;;;;19.13;14.27;;;;;;;;;;5031439;28;20400;-51
2024/01/19 09:22:44;;;;;;;19.63;14.53;;;;;;;;;;5029711;28;20185;-49
2024/01/19 09:25:11;;;;;;;20.33;14.53;;;;;;;;;;5019947;28;20248;-51
2024/01/19 09:27:37;;;;;;;19.67;14.67;;;;;;;;;;5011636;28;20400;-51
2024/01/19 09:30:03;;;;;;;23.03;15.00;;;;;;;;;;5011857;28;20440;-50
2024/01/19 09:32:30;;;;;;;16.97;13.67;;;;;;;;;;5011205;28;20422;-50
2024/01/19 09:34:56;;;;;;;17.77;13.77;;;;;;;;;;5020804;28;20397;-51
2024/01/19 09:37:22;;;;;;;20.90;14.50;;;;;;;;;;5027622;28;20404;-52
2024/01/19 09:39:48;;;;;;;18.40;14.03;;;;;;;;;;5011909;28;20765;-49
2024/01/19 09:42:34;;;;;;;16.93;12.70;;;;;;;;;;5016095;28;20197;-49
2024/01/19 09:45:02;;;;;;;20.20;15.63;;;;;;;;;;5020825;28;20217;-50
2024/01/19 09:47:31;;;;;;;20.57;14.37;;;;;;;;;;5010945;28;21006;-49
2024/01/19 09:50:03;;;;;;;20.77;15.37;;;;;;;;;;5011227;28;20497;-49
2024/01/19 09:52:43;;;;;;;19.17;14.93;;;;;;;;;;5010302;28;20783;-50
2024/01/19 09:55:13;;;;;;;20.57;15.33;;;;;;;;;;5022321;28;20848;-51
2024/01/19 09:57:48;;;;;;;20.80;14.80;;;;;;;;;;5030576;28;20401;-52
2024/01/19 10:00:15;;;;;;;18.20;13.33;;;;;;;;;;5030851;28;20392;-51
2024/01/19 10:02:45;;;;;;;18.47;14.23;;;;;;;;;;5029428;28;20429;-51
2024/01/19 10:05:15;;;;;;;19.07;13.93;;;;;;;;;;5029100;28;20957;-51
2024/01/19 10:07:53;;;;;;;17.37;14.10;;;;;;;;;;5019997;28;20421;-52
2024/01/19 10:10:19;;;;;;;19.67;14.47;;;;;;;;;;5015706;28;20482;-50
2024/01/19 10:12:46;;;;;;;23.90;13.77;;;;;;;;;;5007563;28;20409;-51
2024/01/19 10:15:13;;;;;;;17.93;14.20;;;;;;;;;;5022855;28;20468;-51
2024/01/19 10:17:39;;;;;;;19.20;14.20;;;;;;;;;;5016718;28;20498;-50
2024/01/19 10:20:06;;;;;;;18.30;14.03;;;;;;;;;;5017921;28;20429;-54
2024/01/19 10:22:32;;;;;;;18.43;13.87;;;;;;;;;;5023191;28;20935;-54
2024/01/19 10:25:00;;;;;;;17.77;13.13;;;;;;;;;;5026328;28;20421;-54
2024/01/19 10:27:44;;;;;;;18.07;13.90;;;;;;;;;;5014054;28;20911;-54
2024/01/19 10:30:10;;;;;;;17.17;13.43;;;;;;;;;;5021090;28;20537;-54
2024/01/19 10:32:43;;;;;;;19.77;14.03;;;;;;;;;;5020719;28;20439;-54
2024/01/19 10:35:11;;;;;;;19.97;13.67;;;;;;;;;;5029915;28;21166;-54
2024/01/19 10:37:37;;;;;;;21.00;13.83;;;;;;;;;;5026592;28;20421;-55
2024/01/19 10:40:15;;;;;;;19.27;12.83;;;;;;;;;;5029778;28;20427;-54
2024/01/19 10:42:42;;;;;;;18.33;13.53;;;;;;;;;;5027940;28;21005;-54
2024/01/19 10:45:29;;;;;;;21.57;14.43;;;;;;;;;;5030268;28;20495;-54
2024/01/19 10:47:56;;;;;;;17.40;13.80;;;;;;;;;;5048598;28;20450;-54
2024/01/19 10:50:26;;;;;;;16.87;13.40;;;;;;;;;;5040718;28;20497;-54
2024/01/19 10:52:53;;;;;;;18.83;13.37;;;;;;;;;;5026238;28;20936;-54
2024/01/19 10:55:28;;;;;;;19.60;13.83;;;;;;;;;;5015170;28;20461;-54
2024/01/19 10:57:57;;;;;;;19.07;14.27;;;;;;;;;;5009740;28;20402;-54
2024/01/19 11:00:26;;;;;;;18.43;15.03;;;;;;;;;;5017374;28;20937;-54
2024/01/19 11:02:54;;;;;;;20.60;14.47;;;;;;;;;;5014435;28;20606;-54
2024/01/19 11:05:20;;;;;;;18.53;13.37;;;;;;;;;;5029818;28;20524;-54
2024/01/19 11:07:50;;;;;;;19.77;14.60;;;;;;;;;;5018595;28;20420;-54
2024/01/19 11:10:17;;;;;;;19.17;14.40;;;;;;;;;;5027710;28;20427;-54
2024/01/19 11:12:51;;;;;;;18.13;13.63;;;;;;;;;;5028794;28;20764;-55
2024/01/19 11:15:20;;;;;;;17.97;13.70;;;;;;;;;;5022400;28;20503;-54
2024/01/19 11:17:47;;;;;;;18.97;14.63;;;;;;;;;;5028622;28;20393;-55
2024/01/19 11:20:13;;;;;;;18.87;14.60;;;;;;;;;;5029319;28;20464;-54
2024/01/19 11:22:40;;;;;;;18.93;13.23;;;;;;;;;;5016524;28;20425;-54
2024/01/19 11:25:08;;;;;;;18.87;13.07;;;;;;;;;;5010499;28;20455;-54
2024/01/19 11:27:40;;;;;;;17.27;12.77;;;;;;;;;;5009087;28;20401;-54
2024/01/19 11:30:20;;;;;;;20.30;13.50;;;;;;;;;;5023828;28;20503;-50
2024/01/19 11:32:46;;;;;;;19.40;13.53;;;;;;;;;;5024572;28;20405;-50
2024/01/19 11:35:32;;;;;;;21.30;12.57;;;;;;;;;;5026707;28;20401;-50
2024/01/19 11:37:58;;;;;;;16.83;12.93;;;;;;;;;;5027778;28;20185;-51
2024/01/19 11:40:24;;;;;;;19.77;13.73;;;;;;;;;;5017742;28;20418;-51
2024/01/19 11:42:51;;;;;;;17.17;12.97;;;;;;;;;;5009072;28;20209;-49
2024/01/19 11:45:29;;;;;;;19.90;13.00;;;;;;;;;;5010749;28;20237;-51
2024/01/19 11:47:55;;;;;;;18.93;12.90;;;;;;;;;;5011889;28;20450;-52
2024/01/19 11:50:50;;;;;;;17.70;13.27;;;;;;;;;;5016831;28;20547;-54
2024/01/19 11:53:16;;;;;;;18.60;12.33;;;;;;;;;;5002583;28;20951;-50
2024/01/19 11:55:45;;;;;;;21.90;13.47;;;;;;;;;;5020024;28;20440;-52
2024/01/19 11:58:29;;;;;;;16.00;12.20;;;;;;;;;;5013801;28;20507;-51
2024/01/19 12:00:56;;;;;;;17.50;11.93;;;;;;;;;;5016329;28;20436;-53
2024/01/19 12:03:22;;;;;;;17.63;11.63;;;;;;;;;;5025605;28;20633;-51
2024/01/19 12:05:50;;;;;;;24.70;11.93;;;;;;;;;;5023704;28;20752;-53
2024/01/19 12:08:16;;;;;;;18.30;11.73;;;;;;;;;;5022841;28;20428;-52
2024/01/19 12:10:43;;;;;;;15.77;11.60;;;;;;;;;;5024121;28;20494;-50
2024/01/19 12:13:09;;;;;;;17.07;12.20;;;;;;;;;;5009867;28;20476;-50
2024/01/19 12:15:35;;;;;;;15.33;11.03;;;;;;;;;;5023963;28;20895;-50
2024/01/19 12:18:05;;;;;;;16.43;12.97;;;;;;;;;;5016742;28;21036;-50
2024/01/19 12:20:31;;;;;;;17.37;12.37;;;;;;;;;;5015451;28;20527;-50
2024/01/19 12:22:57;;;;;;;13.70;10.47;;;;;;;;;;5025713;28;20468;-49
2024/01/19 12:25:24;;;;;;;15.13;11.17;;;;;;;;;;5019964;28;20433;-50
2024/01/19 12:28:01;;;;;;;15.13;11.47;;;;;;;;;;5022030;28;20518;-50
2024/01/19 12:30:31;;;;;;;16.30;11.63;;;;;;;;;;5015254;28;20432;-50
2024/01/19 12:32:57;;;;;;;14.33;11.50;;;;;;;;;;5008757;28;20437;-53
2024/01/19 12:35:23;;;;;;;17.20;10.90;;;;;;;;;;5016007;28;20437;-53
2024/01/19 12:37:49;;;;;;;16.87;12.03;;;;;;;;;;5018852;28;20461;-49
2024/01/19 12:40:18;;;;;;;17.47;12.03;;;;;;;;;;5018129;28;20436;-61
2024/01/19 12:42:45;;;;;;;14.03;10.13;;;;;;;;;;5017038;28;20546;-61
2024/01/19 12:45:14;;;;;;;18.00;11.77;;;;;;;;;;5020010;28;20447;-62
2024/01/19 12:47:42;;;;;;;18.07;11.67;;;;;;;;;;5020401;28;20445;-61
2024/01/19 12:50:08;;;;;;;17.57;11.23;;;;;;;;;;5019190;28;20441;-61
2024/01/19 12:52:34;;;;;;;15.70;11.93;;;;;;;;;;5018299;28;20451;-60
2024/01/19 12:55:00;;;;;;;14.27;11.67;;;;;;;;;;5018765;28;20835;-61
2024/01/19 12:57:26;;;;;;;16.83;11.43;;;;;;;;;;5011294;28;20448;-60
2024/01/19 13:00:08;;;;;;;18.00;11.17;;;;;;;;;;5022329;28;20383;-62
2024/01/19 13:02:34;;;;;;;15.03;10.73;;;;;;;;;;5010744;28;20971;-58
2024/01/19 13:05:01;;;;;;;15.97;11.17;;;;;;;;;;5018752;28;20472;-61
2024/01/19 13:07:27;;;;;;;13.43;10.63;;;;;;;;;;5013368;28;20425;-61
2024/01/19 13:10:03;;;;;;;15.10;10.90;;;;;;;;;;5012352;28;20433;-60
2024/01/19 13:12:30;;;;;;;16.90;12.40;;;;;;;;;;5012310;28;20904;-54
2024/01/19 13:15:05;;;;;;;18.07;12.00;;;;;;;;;;5016553;28;20482;-61
2024/01/19 13:17:31;;;;;;;19.80;13.17;;;;;;;;;;5017718;28;20432;-62
2024/01/19 13:19:57;;;;;;;20.13;12.40;;;;;;;;;;5012595;28;20433;-61
2024/01/19 13:22:24;;;;;;;19.20;13.17;;;;;;;;;;5015134;28;20438;-58
2024/01/19 13:24:52;;;;;;;20.63;12.80;;;;;;;;;;5015114;28;20931;-62
2024/01/19 13:27:18;;;;;;;17.70;12.97;;;;;;;;;;5010309;28;20421;-60
2024/01/19 13:29:44;;;;;;;17.13;12.07;;;;;;;;;;5012741;28;20499;-57
2024/01/19 13:32:10;;;;;;;16.27;11.57;;;;;;;;;;5016141;28;20198;-60
2024/01/19 13:34:36;;;;;;;18.17;12.70;;;;;;;;;;5015600;28;20655;-61
2024/01/19 13:37:02;;;;;;;19.90;12.33;;;;;;;;;;5012257;28;20464;-62
2024/01/19 13:39:28;;;;;;;16.93;12.07;;;;;;;;;;5016894;28;20768;-62
2024/01/19 13:41:54;;;;;;;19.80;12.30;;;;;;;;;;5016890;28;20448;-58
2024/01/19 13:44:20;;;;;;;20.03;12.53;;;;;;;;;;5014794;28;20214;-62
2024/01/19 13:46:46;;;;;;;15.87;12.00;;;;;;;;;;5016374;28;20476;-59
2024/01/19 13:49:12;;;;;;;20.93;12.57;;;;;;;;;;5012686;28;20245;-52
2024/01/19 13:51:38;;;;;;;18.50;13.53;;;;;;;;;;5016693;28;20476;-52
2024/01/19 13:54:04;;;;;;;16.30;11.87;;;;;;;;;;5017505;28;20252;-52
2024/01/19 13:56:31;;;;;;;18.37;12.90;;;;;;;;;;5015731;28;20221;-52
2024/01/19 13:58:57;;;;;;;17.60;12.57;;;;;;;;;;5020484;28;20665;-53
2024/01/19 14:01:23;;;;;;;18.17;13.00;;;;;;;;;;5021540;28;20200;-53
2024/01/19 14:03:49;;;;;;;18.80;12.77;;;;;;;;;;5018353;28;20210;-52
2024/01/19 14:06:15;;;;;;;16.63;11.60;;;;;;;;;;5020147;28;20931;-52
2024/01/19 14:08:44;;;;;;;17.23;12.27;;;;;;;;;;5020993;28;20649;-52
2024/01/19 14:11:10;;;;;;;17.43;12.53;;;;;;;;;;5021968;28;20727;-52
2024/01/19 14:13:36;;;;;;;14.37;11.77;;;;;;;;;;5019927;28;20193;-52
2024/01/19 14:16:03;;;;;;;17.63;12.53;;;;;;;;;;5020772;28;20655;-54
2024/01/19 14:18:30;;;;;;;16.23;11.60;;;;;;;;;;5018055;28;20603;-54
2024/01/19 14:20:56;;;;;;;16.27;12.47;;;;;;;;;;5023665;28;20428;-54